createdAt,value
2022-10-10T00:01:32.907Z,74.73
2022-10-10T00:04:02.908Z,75.15
2022-10-10T00:06:33.293Z,75.58
2022-10-10T00:09:03.154Z,75.83
2022-10-10T00:11:32.981Z,75.18
2022-10-10T00:14:01.294Z,75.63
2022-10-10T00:16:29.763Z,75.00
2022-10-10T00:18:58.088Z,75.75
2022-10-10T00:21:26.368Z,78.52
2022-10-10T00:23:54.607Z,79.12
2022-10-10T00:26:22.898Z,77.61
2022-10-10T00:28:52.589Z,76.60
2022-10-10T00:31:20.991Z,76.06
2022-10-10T00:33:49.420Z,78.88
2022-10-10T00:36:20.592Z,82.37
2022-10-10T00:38:49.041Z,86.56
2022-10-10T00:41:17.273Z,100.00
2022-10-10T00:44:00.378Z,100.00
2022-10-10T00:46:30.176Z,100.00
2022-10-10T00:48:58.613Z,97.29
2022-10-10T00:51:27.071Z,94.04
2022-10-10T00:53:59.321Z,94.03
2022-10-10T00:56:32.816Z,96.58
2022-10-10T00:59:05.649Z,94.42
2022-10-10T01:01:35.344Z,89.33
2022-10-10T01:04:04.582Z,89.41
2022-10-10T01:06:33.801Z,87.43
2022-10-10T01:09:02.703Z,87.67
2022-10-10T01:11:45.335Z,86.39
2022-10-10T01:14:25.250Z,85.50
2022-10-10T01:17:03.306Z,87.76
2022-10-10T01:19:59.687Z,89.70
2022-10-10T01:22:36.042Z,91.14
2022-10-10T01:25:18.622Z,88.51
2022-10-10T01:27:52.864Z,86.02
2022-10-10T01:30:24.896Z,85.10
2022-10-10T01:32:57.176Z,84.56
2022-10-10T01:35:34.254Z,85.45
2022-10-10T01:38:12.765Z,83.65
2022-10-10T01:40:49.053Z,82.84
2022-10-10T01:43:18.986Z,82.81
2022-10-10T01:45:50.539Z,83.49
2022-10-10T01:48:21.585Z,84.31
2022-10-10T01:51:10.581Z,82.03
2022-10-10T01:53:44.888Z,82.63
2022-10-10T01:56:23.591Z,82.17
2022-10-10T01:59:07.856Z,82.76
2022-10-10T02:01:47.089Z,81.59
2022-10-10T02:04:21.047Z,82.34
2022-10-10T02:06:55.853Z,81.77
2022-10-10T02:09:36.215Z,81.88
2022-10-10T02:12:06.444Z,82.47
2022-10-10T02:14:40.807Z,88.81
2022-10-10T02:17:13.734Z,93.26
2022-10-10T02:19:46.113Z,89.62
2022-10-10T02:22:15.769Z,88.82
2022-10-10T02:24:44.618Z,87.10
2022-10-10T02:27:19.459Z,86.50
2022-10-10T02:29:50.292Z,83.07
2022-10-10T02:32:25.624Z,83.76
2022-10-10T02:34:58.996Z,82.40
2022-10-10T02:37:29.011Z,82.54
2022-10-10T02:40:02.368Z,82.18
2022-10-10T02:42:31.509Z,81.34
2022-10-10T02:45:00.038Z,80.55
2022-10-10T02:47:29.797Z,80.69
2022-10-10T02:49:58.066Z,81.53
2022-10-10T02:52:26.345Z,83.09
2022-10-10T02:54:54.626Z,84.70
2022-10-10T02:57:22.900Z,84.32
2022-10-10T02:59:51.108Z,86.03
2022-10-10T03:02:19.402Z,84.48
2022-10-10T03:04:49.172Z,85.70
2022-10-10T03:07:17.401Z,84.32
2022-10-10T03:09:45.656Z,83.96
2022-10-10T03:12:13.947Z,83.74
2022-10-10T03:14:42.240Z,82.83
2022-10-10T03:17:11.036Z,83.47
2022-10-10T03:19:39.364Z,83.45
2022-10-10T03:22:09.024Z,83.07
2022-10-10T03:24:37.361Z,82.44
2022-10-10T03:27:05.751Z,83.01
2022-10-10T03:29:34.097Z,82.47
2022-10-10T03:32:02.341Z,83.83
2022-10-10T03:34:30.723Z,89.50
2022-10-10T03:36:58.989Z,86.75
2022-10-10T03:39:28.878Z,85.39
2022-10-10T03:41:57.172Z,83.30
2022-10-10T03:44:25.562Z,89.18
2022-10-10T03:46:53.973Z,89.69
2022-10-10T03:49:22.229Z,91.08
2022-10-10T03:51:50.519Z,95.35
2022-10-10T03:54:18.845Z,98.53
2022-10-10T03:56:49.405Z,100.00
2022-10-10T03:59:17.751Z,100.00
2022-10-10T04:01:46.031Z,95.18
2022-10-10T04:04:14.373Z,92.75
2022-10-10T04:06:42.668Z,92.31
2022-10-10T04:09:10.907Z,91.66
2022-10-10T04:11:40.920Z,93.14
2022-10-10T04:14:10.812Z,100.00
2022-10-10T04:16:39.087Z,99.96
2022-10-10T04:19:07.420Z,96.04
2022-10-10T04:21:36.119Z,95.44
2022-10-10T04:24:04.445Z,96.02
2022-10-10T04:26:32.757Z,94.41
2022-10-10T04:29:01.013Z,92.13
2022-10-10T04:31:30.693Z,90.10
2022-10-10T04:33:59.011Z,89.66
2022-10-10T04:36:27.318Z,89.00
2022-10-10T04:38:55.548Z,89.69
2022-10-10T04:41:23.893Z,89.45
2022-10-10T04:43:52.112Z,90.15
2022-10-10T04:46:20.368Z,88.17
2022-10-10T04:48:50.096Z,89.26
2022-10-10T04:51:18.589Z,88.20
2022-10-10T04:53:50.294Z,86.97
2022-10-10T04:56:18.926Z,87.35
2022-10-10T04:58:47.173Z,87.23
2022-10-10T05:01:15.520Z,85.97
2022-10-10T05:03:44.113Z,88.67
2022-10-10T05:06:13.905Z,95.11
2022-10-10T05:08:44.245Z,100.00
2022-10-10T05:11:12.484Z,100.00
2022-10-10T05:13:40.717Z,100.00
2022-10-10T05:16:09.009Z,100.00
2022-10-10T05:18:39.394Z,100.00
2022-10-10T05:21:07.924Z,100.00
2022-10-10T05:23:38.140Z,100.00
2022-10-10T05:26:06.559Z,100.00
2022-10-10T05:28:36.665Z,100.00
2022-10-10T05:31:06.440Z,100.00
2022-10-10T05:33:35.243Z,100.00
2022-10-10T05:36:05.917Z,99.76
2022-10-10T05:38:34.196Z,94.04
2022-10-10T05:41:04.268Z,90.30
2022-10-10T05:43:32.671Z,87.94
2022-10-10T05:46:00.989Z,88.36
2022-10-10T05:48:29.199Z,85.44
2022-10-10T05:50:58.834Z,84.62
2022-10-10T05:53:28.437Z,82.74
2022-10-10T05:55:56.736Z,84.27
2022-10-10T05:58:27.886Z,85.45
2022-10-10T06:00:56.250Z,87.21
2022-10-10T06:03:24.485Z,88.57
2022-10-10T06:05:53.349Z,85.48
2022-10-10T06:08:21.644Z,82.99
2022-10-10T06:10:50.501Z,81.14
2022-10-10T06:13:24.252Z,80.03
2022-10-10T06:15:55.166Z,77.61
2022-10-10T06:18:23.379Z,76.87
2022-10-10T06:20:51.673Z,74.60
2022-10-10T06:23:20.317Z,70.70
2022-10-10T06:25:48.635Z,71.05
2022-10-10T06:28:16.966Z,70.88
2022-10-10T06:30:48.632Z,64.89
2022-10-10T06:33:19.819Z,63.14
2022-10-10T06:35:49.947Z,61.81
2022-10-10T06:38:18.719Z,61.40
2022-10-10T06:40:47.253Z,62.06
2022-10-10T06:43:17.318Z,61.01
2022-10-10T06:45:47.607Z,61.14
2022-10-10T06:48:17.759Z,61.06
2022-10-10T06:50:57.090Z,61.87
2022-10-10T06:53:25.489Z,61.04
2022-10-10T06:55:54.429Z,60.18
2022-10-10T06:58:22.745Z,59.43
2022-10-10T07:00:52.481Z,57.82
2022-10-10T07:03:23.144Z,57.71
2022-10-10T07:05:52.938Z,58.42
2022-10-10T07:08:21.642Z,57.61
2022-10-10T07:10:50.148Z,55.06
2022-10-10T07:13:18.857Z,53.72
2022-10-10T07:15:47.217Z,52.31
2022-10-10T07:18:15.738Z,51.30
2022-10-10T07:20:45.464Z,50.72
2022-10-10T07:23:13.763Z,51.27
2022-10-10T07:25:44.685Z,52.74
2022-10-10T07:28:13.105Z,53.40
2022-10-10T07:30:43.817Z,52.77
2022-10-10T07:33:13.602Z,51.49
2022-10-10T07:35:42.164Z,51.88
2022-10-10T07:38:13.241Z,50.90
2022-10-10T07:40:41.864Z,51.17
2022-10-10T07:43:10.080Z,48.99
2022-10-10T07:45:38.506Z,47.43
2022-10-10T07:48:07.040Z,48.97
2022-10-10T07:50:35.365Z,48.19
2022-10-10T07:53:03.573Z,45.16
2022-10-10T07:55:33.170Z,45.46
2022-10-10T07:58:03.875Z,46.71
2022-10-10T08:00:33.429Z,45.64
2022-10-10T08:03:01.734Z,44.83
2022-10-10T08:05:30.398Z,43.59
2022-10-10T08:07:58.701Z,42.99
2022-10-10T08:10:28.753Z,43.24
2022-10-10T08:12:58.471Z,41.84
2022-10-10T08:15:33.138Z,41.72
2022-10-10T08:18:02.380Z,40.34
2022-10-10T08:20:30.609Z,40.75
2022-10-10T08:22:59.104Z,40.94
2022-10-10T08:25:27.855Z,42.22
2022-10-10T08:27:57.455Z,42.31
2022-10-10T08:30:25.667Z,41.60
2022-10-10T08:32:54.214Z,42.10
2022-10-10T08:35:22.665Z,41.65
2022-10-10T08:37:50.916Z,39.90
2022-10-10T08:40:21.775Z,40.38
2022-10-10T08:42:55.971Z,38.69
2022-10-10T08:45:28.610Z,38.49
2022-10-10T08:48:01.103Z,36.73
2022-10-10T08:50:32.692Z,38.55
2022-10-10T08:53:04.674Z,37.59
2022-10-10T08:55:35.775Z,38.44
2022-10-10T08:58:08.180Z,37.25
2022-10-10T09:00:41.258Z,37.58
2022-10-10T09:03:20.709Z,39.01
2022-10-10T09:06:02.416Z,38.69
2022-10-10T09:08:45.824Z,38.46
2022-10-10T09:11:26.185Z,37.03
2022-10-10T09:14:05.432Z,37.68
2022-10-10T09:16:41.714Z,38.33
2022-10-10T09:19:24.646Z,39.21
2022-10-10T09:21:59.315Z,38.43
2022-10-10T09:24:33.441Z,37.90
2022-10-10T09:27:05.297Z,38.36
2022-10-10T09:29:39.251Z,38.72
2022-10-10T09:32:14.574Z,38.56
2022-10-10T09:34:47.009Z,38.18
2022-10-10T09:37:29.460Z,39.13
2022-10-10T09:40:14.130Z,39.68
2022-10-10T09:42:45.148Z,41.40
2022-10-10T09:45:17.811Z,41.99
2022-10-10T09:47:50.125Z,41.20
2022-10-10T09:50:18.567Z,39.50
2022-10-10T09:52:48.430Z,38.63
2022-10-10T09:55:24.277Z,37.94
2022-10-10T09:57:54.497Z,37.58
2022-10-10T10:00:29.301Z,36.40
2022-10-10T10:03:13.647Z,35.75
2022-10-10T10:05:45.177Z,34.84
2022-10-10T10:08:27.647Z,36.03
2022-10-10T10:10:58.743Z,37.04
2022-10-10T10:13:31.637Z,37.88
2022-10-10T10:16:11.604Z,40.05
2022-10-10T10:18:43.980Z,38.99
2022-10-10T10:21:23.768Z,39.54
2022-10-10T10:23:56.027Z,38.71
2022-10-10T10:26:27.542Z,39.04
2022-10-10T10:28:57.788Z,39.84
2022-10-10T10:31:54.231Z,39.68
2022-10-10T10:34:44.120Z,39.46
2022-10-10T10:37:21.278Z,39.99
2022-10-10T10:40:10.741Z,41.34
2022-10-10T10:43:02.155Z,41.83
2022-10-10T10:45:39.179Z,40.24
2022-10-10T10:48:21.793Z,39.49
2022-10-10T10:50:55.542Z,39.05
2022-10-10T10:53:33.293Z,38.28
2022-10-10T10:56:16.145Z,37.97
2022-10-10T11:01:58.758Z,40.13
2022-10-10T11:05:25.165Z,42.37
2022-10-10T11:07:58.508Z,41.65
2022-10-10T11:10:38.643Z,42.10
2022-10-10T11:13:20.488Z,41.31
2022-10-10T11:16:05.886Z,41.18
2022-10-10T11:18:40.208Z,41.96
2022-10-10T11:21:16.070Z,40.46
2022-10-10T11:23:51.150Z,39.64
2022-10-10T11:26:23.438Z,38.37
2022-10-10T11:28:55.611Z,39.42
2022-10-10T11:31:28.222Z,38.97
2022-10-10T11:34:02.549Z,39.11
2022-10-10T11:36:33.581Z,39.51
2022-10-10T11:39:07.588Z,38.76
2022-10-10T11:41:41.229Z,39.67
2022-10-10T11:44:17.767Z,39.74
2022-10-10T11:46:52.153Z,38.69
2022-10-10T11:49:26.427Z,39.01
2022-10-10T11:52:35.216Z,38.91
2022-10-10T11:55:11.685Z,40.78
2022-10-10T11:57:44.646Z,39.49
2022-10-10T12:00:16.088Z,37.75
2022-10-10T12:02:46.578Z,37.35
2022-10-10T12:05:26.085Z,37.79
2022-10-10T12:08:06.669Z,37.91
2022-10-10T12:10:41.548Z,35.57
2022-10-10T12:13:30.197Z,35.10
2022-10-10T12:16:03.708Z,37.40
2022-10-10T12:18:39.768Z,37.28
2022-10-10T12:21:10.731Z,37.64
2022-10-10T12:23:41.223Z,38.02
2022-10-10T12:26:15.476Z,37.43
2022-10-10T12:29:03.836Z,38.57
2022-10-10T12:31:36.872Z,37.35
2022-10-10T12:34:16.032Z,37.05
2022-10-10T12:36:58.316Z,36.62
2022-10-10T12:39:38.599Z,37.13
2022-10-10T12:42:35.956Z,36.63
2022-10-10T12:45:04.620Z,36.56
2022-10-10T12:48:04.081Z,37.27
2022-10-10T12:50:35.869Z,37.79
2022-10-10T12:53:08.448Z,37.65
2022-10-10T12:55:44.095Z,38.34
2022-10-10T12:58:26.706Z,38.39
2022-10-10T13:00:58.398Z,38.85
2022-10-10T13:03:32.438Z,39.32
2022-10-10T13:06:06.637Z,40.81
2022-10-10T13:08:38.458Z,41.64
2022-10-10T13:11:10.899Z,41.61
2022-10-10T13:13:41.750Z,40.56
2022-10-10T13:16:11.315Z,40.70
2022-10-10T13:18:41.143Z,40.10
2022-10-10T13:21:12.961Z,40.14
2022-10-10T13:26:35.960Z,41.39
2022-10-10T13:29:18.019Z,41.35
2022-10-10T13:31:47.024Z,42.42
2022-10-10T13:34:23.393Z,41.19
2022-10-10T13:36:57.334Z,40.27
2022-10-10T13:39:27.555Z,41.27
2022-10-10T13:41:57.420Z,41.63
2022-10-10T13:44:35.665Z,41.34
2022-10-10T13:47:51.628Z,41.36
2022-10-10T13:50:24.675Z,41.64
2022-10-10T13:53:18.457Z,42.03
2022-10-10T13:55:48.060Z,41.78
2022-10-10T13:58:17.640Z,42.57
2022-10-10T14:00:56.346Z,43.22
2022-10-10T14:03:25.004Z,42.50
2022-10-10T14:05:53.756Z,43.46
2022-10-10T14:08:29.177Z,43.00
2022-10-10T14:11:01.171Z,43.38
2022-10-10T14:13:31.322Z,44.02
2022-10-10T14:16:13.772Z,44.08
2022-10-10T14:18:42.162Z,44.32
2022-10-10T14:21:10.795Z,43.96
2022-10-10T14:23:40.689Z,44.85
2022-10-10T14:26:15.983Z,44.44
2022-10-10T14:28:44.881Z,44.80
2022-10-10T14:31:15.385Z,44.36
2022-10-10T14:33:43.783Z,44.13
2022-10-10T14:36:14.641Z,44.05
2022-10-10T14:38:43.128Z,44.27
2022-10-10T14:41:13.480Z,43.91
2022-10-10T14:43:45.743Z,42.88
2022-10-10T14:46:19.876Z,43.63
2022-10-10T14:48:48.710Z,44.49
2022-10-10T14:51:34.594Z,45.28
2022-10-10T14:54:10.925Z,46.18
2022-10-10T14:57:07.879Z,46.25
2022-10-10T14:59:47.931Z,47.10
2022-10-10T15:02:20.627Z,47.11
2022-10-10T15:04:49.760Z,46.55
2022-10-10T15:07:18.524Z,46.21
2022-10-10T15:10:17.657Z,46.55
2022-10-10T15:12:41.356Z,46.89
2022-10-10T15:15:11.053Z,48.98
2022-10-10T15:17:40.833Z,49.74
2022-10-10T15:20:12.291Z,48.99
2022-10-10T15:22:41.309Z,49.05
2022-10-10T15:25:10.417Z,49.56
2022-10-10T15:27:39.135Z,51.18
2022-10-10T15:30:09.017Z,51.54
2022-10-10T15:32:41.851Z,52.79
2022-10-10T15:35:14.544Z,52.39
2022-10-10T15:37:45.690Z,53.60
2022-10-10T15:40:15.541Z,55.15
2022-10-10T15:42:43.912Z,57.93
2022-10-10T15:45:12.681Z,58.55
2022-10-10T15:47:46.604Z,58.66
2022-10-10T15:50:24.801Z,57.95
2022-10-10T15:52:55.008Z,57.54
2022-10-10T15:55:23.345Z,56.34
2022-10-10T15:57:51.606Z,56.68
2022-10-10T16:00:20.110Z,58.47
2022-10-10T16:02:49.748Z,57.68
2022-10-10T16:05:18.669Z,56.93
2022-10-10T16:07:48.485Z,57.84
2022-10-10T16:10:18.159Z,57.48
2022-10-10T16:12:46.634Z,58.11
2022-10-10T16:15:15.211Z,57.85
2022-10-10T16:17:46.940Z,57.09
2022-10-10T16:20:17.123Z,57.24
2022-10-10T16:22:45.619Z,56.89
2022-10-10T16:25:22.205Z,56.23
2022-10-10T16:27:51.214Z,56.66
2022-10-10T16:30:20.475Z,56.49
2022-10-10T16:32:49.077Z,57.14
2022-10-10T16:35:19.869Z,57.66
2022-10-10T16:37:48.523Z,56.79
2022-10-10T16:40:17.138Z,56.67
2022-10-10T16:42:46.098Z,57.17
2022-10-10T16:45:14.338Z,57.55
2022-10-10T16:47:42.662Z,57.94
2022-10-10T16:50:11.577Z,58.06
2022-10-10T16:52:41.714Z,59.42
2022-10-10T16:55:11.458Z,59.89
2022-10-10T16:57:41.169Z,61.20
2022-10-10T17:00:11.253Z,59.58
2022-10-10T17:02:42.438Z,59.11
2022-10-10T17:05:11.320Z,59.67
2022-10-10T17:07:40.984Z,59.39
2022-10-10T17:10:10.073Z,59.49
2022-10-10T17:12:38.285Z,59.31
2022-10-10T17:15:07.538Z,59.59
2022-10-10T17:17:35.926Z,61.09
2022-10-10T17:20:04.224Z,60.65
2022-10-10T17:22:32.446Z,59.65
2022-10-10T17:25:02.182Z,59.82
2022-10-10T17:27:30.568Z,59.44
2022-10-10T17:29:58.757Z,59.61
2022-10-10T17:32:27.213Z,60.03
2022-10-10T17:34:55.899Z,59.86
2022-10-10T17:37:25.574Z,60.59
2022-10-10T17:39:53.954Z,60.89
2022-10-10T17:42:24.045Z,61.61
2022-10-10T17:44:56.225Z,61.40
2022-10-10T17:47:25.808Z,62.61
2022-10-10T17:49:54.187Z,63.48
2022-10-10T17:52:22.585Z,63.84
2022-10-10T17:54:50.888Z,64.33
2022-10-10T17:57:19.288Z,63.02
2022-10-10T17:59:49.280Z,62.33
2022-10-10T18:02:19.519Z,62.62
2022-10-10T18:04:48.061Z,62.63
2022-10-10T18:07:18.691Z,62.40
2022-10-10T18:09:47.429Z,62.97
2022-10-10T18:12:15.779Z,62.31
2022-10-10T18:14:44.188Z,62.61
2022-10-10T18:17:14.198Z,62.35
2022-10-10T18:19:42.559Z,62.56
2022-10-10T18:22:10.886Z,62.35
2022-10-10T18:24:42.340Z,62.32
2022-10-10T18:27:10.678Z,62.87
2022-10-10T18:29:39.725Z,62.88
2022-10-10T18:32:08.451Z,62.78
2022-10-10T18:34:38.472Z,62.56
2022-10-10T18:37:07.494Z,63.99
2022-10-10T18:39:37.420Z,63.57
2022-10-10T18:42:06.149Z,63.81
2022-10-10T18:44:34.839Z,63.75
2022-10-10T18:47:03.623Z,64.58
2022-10-10T18:49:33.334Z,64.96
2022-10-10T18:52:03.104Z,65.88
2022-10-10T18:54:33.348Z,65.17
2022-10-10T18:57:01.872Z,66.33
2022-10-10T18:59:32.131Z,66.40
2022-10-10T19:02:03.463Z,66.74
2022-10-10T19:04:34.757Z,67.45
2022-10-10T19:07:04.575Z,67.13
2022-10-10T19:09:34.373Z,71.33
2022-10-10T19:12:02.633Z,75.83
2022-10-10T19:14:31.934Z,78.86
2022-10-10T19:17:00.697Z,81.63
2022-10-10T19:19:29.238Z,82.67
2022-10-10T19:21:57.512Z,83.58
2022-10-10T19:24:28.409Z,84.86
2022-10-10T19:26:57.728Z,86.05
2022-10-10T19:29:27.790Z,86.84
2022-10-10T19:31:56.151Z,90.64
2022-10-10T19:34:24.857Z,86.02
2022-10-10T19:36:53.840Z,83.18
2022-10-10T19:39:22.193Z,79.82
2022-10-10T19:41:52.140Z,82.51
2022-10-10T19:44:21.344Z,81.11
2022-10-10T19:46:49.700Z,82.18
2022-10-10T19:49:17.975Z,82.81
2022-10-10T19:51:46.731Z,83.94
2022-10-10T19:54:15.246Z,82.10
2022-10-10T19:56:46.343Z,79.12
2022-10-10T19:59:16.415Z,78.37
2022-10-10T20:01:44.913Z,76.18
2022-10-10T20:04:13.298Z,74.21
2022-10-10T20:06:43.608Z,73.73
2022-10-10T20:09:12.071Z,74.24
2022-10-10T20:11:40.757Z,73.57
2022-10-10T20:14:09.381Z,72.39
2022-10-10T20:16:39.202Z,72.53
2022-10-10T20:19:07.675Z,72.59
2022-10-10T20:21:36.226Z,73.41
2022-10-10T20:24:07.548Z,74.02
2022-10-10T20:26:37.144Z,74.11
2022-10-10T20:29:05.730Z,73.73
2022-10-10T20:31:36.903Z,73.79
2022-10-10T20:34:08.552Z,73.08
2022-10-10T20:36:48.133Z,72.88
2022-10-10T20:39:16.927Z,73.82
2022-10-10T20:41:45.606Z,74.09
2022-10-10T20:44:16.764Z,73.49
2022-10-10T20:46:47.408Z,73.18
2022-10-10T20:49:19.428Z,72.62
2022-10-10T20:51:51.091Z,72.26
2022-10-10T20:54:21.536Z,72.77
2022-10-10T20:56:50.335Z,72.88
2022-10-10T20:59:19.567Z,72.66
2022-10-10T21:01:48.379Z,73.70
2022-10-10T21:05:00.185Z,73.78
2022-10-10T21:07:31.042Z,75.83
2022-10-10T21:09:59.441Z,76.90
2022-10-10T21:12:27.729Z,78.00
2022-10-10T21:14:57.064Z,78.88
2022-10-10T21:17:25.356Z,77.16
2022-10-10T21:19:54.109Z,75.66
2022-10-10T21:22:22.513Z,74.09
2022-10-10T21:24:52.311Z,75.91
2022-10-10T21:27:20.621Z,78.62
2022-10-10T21:29:49.448Z,79.91
2022-10-10T21:32:17.646Z,78.65
2022-10-10T21:34:45.981Z,76.79
2022-10-10T21:37:14.207Z,76.10
2022-10-10T21:39:42.492Z,76.99
2022-10-10T21:42:12.172Z,79.76
2022-10-10T21:44:40.821Z,78.12
2022-10-10T21:47:09.020Z,78.16
2022-10-10T21:49:37.465Z,77.61
2022-10-10T21:52:06.136Z,76.73
2022-10-10T21:54:34.368Z,75.84
2022-10-10T21:57:02.605Z,76.37
2022-10-10T21:59:32.722Z,76.02
2022-10-10T22:02:01.026Z,77.39
2022-10-10T22:04:29.337Z,78.12
2022-10-10T22:07:16.463Z,77.45
2022-10-10T22:09:45.116Z,76.62
2022-10-10T22:12:13.330Z,77.15
2022-10-10T22:14:43.162Z,76.87
2022-10-10T22:17:11.439Z,78.77
2022-10-10T22:19:39.691Z,78.55
2022-10-10T22:22:07.998Z,77.54
2022-10-10T22:24:36.319Z,77.13
2022-10-10T22:27:04.585Z,76.92
2022-10-10T22:29:32.905Z,77.65
2022-10-10T22:32:02.605Z,78.33
2022-10-10T22:34:30.893Z,78.28
2022-10-10T22:36:59.272Z,79.23
2022-10-10T22:39:28.279Z,78.65
2022-10-10T22:41:56.561Z,79.98
2022-10-10T22:44:24.848Z,79.66
2022-10-10T22:46:53.141Z,78.27
2022-10-10T22:49:22.838Z,78.63
2022-10-10T22:51:51.492Z,78.10
2022-10-10T22:54:19.748Z,78.94
2022-10-10T22:56:47.989Z,78.32
2022-10-10T22:59:16.216Z,79.04
2022-10-10T23:01:44.502Z,78.72
2022-10-10T23:04:13.581Z,78.13
2022-10-10T23:06:43.167Z,78.27
2022-10-10T23:09:13.157Z,77.71
2022-10-10T23:11:41.529Z,78.50
2022-10-10T23:14:09.813Z,78.94
2022-10-10T23:16:40.735Z,78.99
2022-10-10T23:19:09.345Z,79.40
2022-10-10T23:21:37.565Z,79.97
2022-10-10T23:24:07.795Z,79.03
2022-10-10T23:26:35.989Z,79.05
2022-10-10T23:29:04.308Z,78.14
2022-10-10T23:31:32.990Z,78.68
2022-10-10T23:34:01.238Z,79.34
2022-10-10T23:36:29.501Z,79.39
2022-10-10T23:38:58.394Z,79.53
2022-10-10T23:41:28.066Z,79.11
2022-10-10T23:43:56.307Z,78.23
2022-10-10T23:46:24.633Z,78.59
2022-10-10T23:48:52.850Z,78.79
2022-10-10T23:51:21.109Z,78.86
2022-10-10T23:53:49.433Z,78.83
2022-10-10T23:56:17.637Z,79.79
2022-10-10T23:58:47.260Z,80.66
